Poyen, Arkansas
Current Conditions -  °F | °C
As of 9:53 AM on Monday 24 Nov 2014 (Local Time) from KHOT Reporting Station
Clear Clear  
Wind Chill: 51°   Ceiling: Unl
Heat Index: 51°   Visibility: 10mi
Dew Point: 30°   Wind: 12mph
Humidity: 44%   Direction: 280°W
Pressure: 29.94"   Gusts: NA
Location:  34.32°N, 92.64°W
Report Text: KHOT 241553Z AUTO 28010KT 250V340 10SM CLR 11/M01 A2994 RMK AO2 SLP137 T01061011
Loading
Personal Weather Stations






























Interactive Weather Map New forecast layout! Learn more

10-Day Weather Forecast

Advertisements
Track Severe Weather on mobile